Time;durP1;ratioP1;P1;durP2;ratioP2;P2;SDS_P1;SDS_P2;PMS_P1;PMS_P2;Temp;Humidity;BMP_temperature;BMP_pressure;BME280_temperature;BME280_humidity;BME280_pressure;Samples;Min_cycle;Max_cycle;Signal;HPM_P1;HPM_P2
2021/01/04 00:00:47;;;;;;;;;;;;;;;;;;5056236;28;19908;-76
2021/01/04 00:03:13;;;;;;;;;;;;;;;;;;5056211;28;20417;-74
2021/01/04 00:05:39;;;;;;;;;;;;;;;;;;5056373;28;19913;-74
2021/01/04 00:08:05;;;;;;;;;;;;;;;;;;5056173;28;20003;-74
2021/01/04 00:10:31;;;;;;;;;;;;;;;;;;5074085;28;19951;-74
2021/01/04 00:12:57;;;;;;;;;;;;;;;;;;5044273;28;20371;-74
2021/01/04 00:15:23;;;;;;;;;;;;;;;;;;5062724;28;19917;-74
2021/01/04 00:17:49;;;;;;;;;;;;;;;;;;5036033;28;19940;-74
2021/01/04 00:20:15;;;;;;;;;;;;;;;;;;5036033;28;19959;-74
2021/01/04 00:22:40;;;;;;;;;;;;;;;;;;5035150;28;19944;-73
2021/01/04 00:25:06;;;;;;;;;;;;;;;;;;5036470;28;20382;-73
2021/01/04 00:27:32;;;;;;;;;;;;;;;;;;5036124;28;19916;-73
2021/01/04 00:30:01;;;;;;;;;;;;;;;;;;5036211;28;19909;-73
2021/01/04 00:32:30;;;;;;;;;;;;;;;;;;5035712;28;19974;-74
2021/01/04 00:34:56;;;;;;;;;;;;;;;;;;5035842;28;19920;-75
2021/01/04 00:37:22;;;;;;;;;;;;;;;;;;5035823;28;19913;-73
2021/01/04 00:39:48;;;;;;;;;;;;;;;;;;5035661;28;20283;-76
2021/01/04 00:42:14;;;;;;;;;;;;;;;;;;5036718;28;19947;-76
2021/01/04 00:44:40;;;;;;;;;;;;;;;;;;5047134;28;19956;-75
2021/01/04 00:47:05;;;;;;;;;;;;;;;;;;5073383;28;19963;-75
2021/01/04 00:49:31;;;;;;;;;;;;;;;;;;5055639;28;19909;-75
2021/01/04 00:51:57;;;;;;;;;;;;;;;;;;5055242;28;19909;-75
2021/01/04 00:54:23;;;;;;;;;;;;;;;;;;5055397;28;20369;-75
2021/01/04 00:56:49;;;;;;;;;;;;;;;;;;5054208;28;19916;-76
2021/01/04 00:59:15;;;;;;;;;;;;;;;;;;5052665;28;19958;-75
2021/01/04 01:01:41;;;;;;;;;;;;;;;;;;5035577;28;19917;-74
2021/01/04 01:04:07;;;;;;;;;;;;;;;;;;5035541;28;19909;-74
2021/01/04 01:06:33;;;;;;;;;;;;;;;;;;5035283;28;19952;-73
2021/01/04 01:08:59;;;;;;;;;;;;;;;;;;5042105;28;19954;-74
2021/01/04 01:11:25;;;;;;;;;;;;;;;;;;5055024;28;19913;-73
2021/01/04 01:13:51;;;;;;;;;;;;;;;;;;5072935;28;19972;-76
2021/01/04 01:16:17;;;;;;;;;;;;;;;;;;5055204;28;19913;-73
2021/01/04 01:18:42;;;;;;;;;;;;;;;;;;5054801;28;19909;-73
2021/01/04 01:21:08;;;;;;;;;;;;;;;;;;5055146;28;19908;-74
2021/01/04 01:23:34;;;;;;;;;;;;;;;;;;5055012;28;19913;-74
2021/01/04 01:26:00;;;;;;;;;;;;;;;;;;5054721;28;19908;-75
2021/01/04 01:28:26;;;;;;;;;;;;;;;;;;5054650;28;19909;-75
2021/01/04 01:30:52;;;;;;;;;;;;;;;;;;5054451;28;19916;-75
2021/01/04 01:33:18;;;;;;;;;;;;;;;;;;5072676;28;20374;-75
2021/01/04 01:35:44;;;;;;;;;;;;;;;;;;5054945;28;20391;-76
2021/01/04 01:38:10;;;;;;;;;;;;;;;;;;5052517;28;19909;-75
2021/01/04 01:40:36;;;;;;;;;;;;;;;;;;5047833;28;19909;-76
2021/01/04 01:43:02;;;;;;;;;;;;;;;;;;5054732;28;20389;-76
2021/01/04 01:45:28;;;;;;;;;;;;;;;;;;5054457;28;19961;-76
2021/01/04 01:47:54;;;;;;;;;;;;;;;;;;5054350;28;20373;-76
2021/01/04 01:50:20;;;;;;;;;;;;;;;;;;5054271;28;19962;-75
2021/01/04 01:52:46;;;;;;;;;;;;;;;;;;5054372;28;19908;-76
2021/01/04 01:55:11;;;;;;;;;;;;;;;;;;5054123;28;19944;-76
2021/01/04 01:57:37;;;;;;;;;;;;;;;;;;5053982;28;19916;-75
2021/01/04 02:00:03;;;;;;;;;;;;;;;;;;5054259;28;20011;-76
2021/01/04 02:02:29;;;;;;;;;;;;;;;;;;5054292;28;19908;-76
2021/01/04 02:04:55;;;;;;;;;;;;;;;;;;5054174;28;19961;-74
2021/01/04 02:07:21;;;;;;;;;;;;;;;;;;5053621;28;19912;-74
2021/01/04 02:09:47;;;;;;;;;;;;;;;;;;5046175;28;19958;-74
2021/01/04 02:12:13;;;;;;;;;;;;;;;;;;5054247;28;19908;-74
2021/01/04 02:14:39;;;;;;;;;;;;;;;;;;5054280;28;20019;-75
2021/01/04 02:17:05;;;;;;;;;;;;;;;;;;5047665;28;19966;-73
2021/01/04 02:19:31;;;;;;;;;;;;;;;;;;5042012;28;19916;-74
2021/01/04 02:21:57;;;;;;;;;;;;;;;;;;5033969;28;19909;-74
2021/01/04 02:24:23;;;;;;;;;;;;;;;;;;5033843;28;19956;-74
2021/01/04 02:26:48;;;;;;;;;;;;;;;;;;5051709;28;19908;-73
2021/01/04 02:29:14;;;;;;;;;;;;;;;;;;5033728;28;19909;-74
2021/01/04 02:31:40;;;;;;;;;;;;;;;;;;5033766;28;19997;-74
2021/01/04 02:34:06;;;;;;;;;;;;;;;;;;5033883;28;19940;-74
2021/01/04 02:36:32;;;;;;;;;;;;;;;;;;5033797;28;19909;-74
2021/01/04 02:38:58;;;;;;;;;;;;;;;;;;5032709;28;20015;-74
2021/01/04 02:41:24;;;;;;;;;;;;;;;;;;5044967;28;19908;-74
2021/01/04 02:43:50;;;;;;;;;;;;;;;;;;5053791;28;20336;-74
2021/01/04 02:46:16;;;;;;;;;;;;;;;;;;5053441;28;20346;-75
2021/01/04 02:48:42;;;;;;;;;;;;;;;;;;5051341;28;20298;-74
2021/01/04 02:51:08;;;;;;;;;;;;;;;;;;5038151;28;19960;-74
2021/01/04 02:53:37;;;;;;;;;;;;;;;;;;5033545;28;20398;-74
2021/01/04 02:56:03;;;;;;;;;;;;;;;;;;5033203;28;19924;-74
2021/01/04 02:58:29;;;;;;;;;;;;;;;;;;5033706;28;19916;-74
2021/01/04 03:00:55;;;;;;;;;;;;;;;;;;5033238;28;19912;-73
2021/01/04 03:03:21;;;;;;;;;;;;;;;;;;5033485;28;19908;-75
2021/01/04 03:05:47;;;;;;;;;;;;;;;;;;5032375;28;19909;-74
2021/01/04 03:08:13;;;;;;;;;;;;;;;;;;5043195;28;20020;-75
2021/01/04 03:10:39;;;;;;;;;;;;;;;;;;5070945;28;20209;-74
2021/01/04 03:13:05;;;;;;;;;;;;;;;;;;5070990;28;19963;-74
2021/01/04 03:15:30;;;;;;;;;;;;;;;;;;5052847;28;19970;-74
2021/01/04 03:17:56;;;;;;;;;;;;;;;;;;5053157;28;19913;-74
2021/01/04 03:20:22;;;;;;;;;;;;;;;;;;5053363;28;19952;-74
2021/01/04 03:22:48;;;;;;;;;;;;;;;;;;5053389;28;19927;-74
2021/01/04 03:25:14;;;;;;;;;;;;;;;;;;5052952;28;19975;-74
2021/01/04 03:27:40;;;;;;;;;;;;;;;;;;5052927;28;19959;-74
2021/01/04 03:30:06;;;;;;;;;;;;;;;;;;5053021;28;20005;-74
2021/01/04 03:32:32;;;;;;;;;;;;;;;;;;5052812;28;19909;-75
2021/01/04 03:34:58;;;;;;;;;;;;;;;;;;5052903;28;19955;-74
2021/01/04 03:37:24;;;;;;;;;;;;;;;;;;5047545;28;19955;-74
2021/01/04 03:39:50;;;;;;;;;;;;;;;;;;5035418;28;19909;-74
2021/01/04 03:42:16;;;;;;;;;;;;;;;;;;5044325;28;19979;-74
2021/01/04 03:44:42;;;;;;;;;;;;;;;;;;5052740;28;20370;-74
2021/01/04 03:47:08;;;;;;;;;;;;;;;;;;5052692;28;19951;-74
2021/01/04 03:49:33;;;;;;;;;;;;;;;;;;5052720;28;19915;-74
2021/01/04 03:51:59;;;;;;;;;;;;;;;;;;5052677;28;20448;-74
2021/01/04 03:54:25;;;;;;;;;;;;;;;;;;5052705;28;19991;-74
2021/01/04 03:56:51;;;;;;;;;;;;;;;;;;5053092;28;19923;-76
2021/01/04 03:59:17;;;;;;;;;;;;;;;;;;5056020;28;19991;-75
2021/01/04 04:01:43;;;;;;;;;;;;;;;;;;5056131;28;19951;-74
2021/01/04 04:04:10;;;;;;;;;;;;;;;;;;5031028;28;20206;-74
2021/01/04 04:06:36;;;;;;;;;;;;;;;;;;5042779;28;20012;-74
2021/01/04 04:09:02;;;;;;;;;;;;;;;;;;5054377;28;19916;-74
2021/01/04 04:11:28;;;;;;;;;;;;;;;;;;5045168;28;19956;-75
2021/01/04 04:13:53;;;;;;;;;;;;;;;;;;5051917;28;20047;-74
2021/01/04 04:16:19;;;;;;;;;;;;;;;;;;5056194;28;19916;-74
2021/01/04 04:18:45;;;;;;;;;;;;;;;;;;5055775;28;19909;-75
2021/01/04 04:21:11;;;;;;;;;;;;;;;;;;5073960;28;20290;-75
2021/01/04 04:23:37;;;;;;;;;;;;;;;;;;5056040;28;19919;-76
2021/01/04 04:26:03;;;;;;;;;;;;;;;;;;5056270;28;20369;-74
2021/01/04 04:28:29;;;;;;;;;;;;;;;;;;5055849;28;19993;-75
2021/01/04 04:30:55;;;;;;;;;;;;;;;;;;5055753;28;20359;-75
2021/01/04 04:33:21;;;;;;;;;;;;;;;;;;5073984;28;20375;-76
2021/01/04 04:35:47;;;;;;;;;;;;;;;;;;5056201;28;19914;-76
2021/01/04 04:38:13;;;;;;;;;;;;;;;;;;5056094;28;19998;-75
2021/01/04 04:40:39;;;;;;;;;;;;;;;;;;5050211;28;19995;-75
2021/01/04 04:43:05;;;;;;;;;;;;;;;;;;5047487;28;19912;-75
2021/01/04 04:45:31;;;;;;;;;;;;;;;;;;5055648;28;19908;-75
2021/01/04 04:47:56;;;;;;;;;;;;;;;;;;5055499;28;20379;-74
2021/01/04 04:50:22;;;;;;;;;;;;;;;;;;5055452;28;20418;-75
2021/01/04 04:52:48;;;;;;;;;;;;;;;;;;5053670;28;20330;-75
2021/01/04 04:55:14;;;;;;;;;;;;;;;;;;5036640;28;20006;-75
2021/01/04 04:57:41;;;;;;;;;;;;;;;;;;5035132;28;19909;-75
2021/01/04 05:00:07;;;;;;;;;;;;;;;;;;5035128;28;20430;-75
2021/01/04 05:02:33;;;;;;;;;;;;;;;;;;5035098;28;20044;-75
2021/01/04 05:04:59;;;;;;;;;;;;;;;;;;5035223;28;19909;-74
2021/01/04 05:07:25;;;;;;;;;;;;;;;;;;5035125;28;19952;-75
2021/01/04 05:09:51;;;;;;;;;;;;;;;;;;5035151;28;19960;-75
2021/01/04 05:12:18;;;;;;;;;;;;;;;;;;5045884;28;19913;-75
2021/01/04 05:14:44;;;;;;;;;;;;;;;;;;5043522;28;19913;-75
2021/01/04 05:17:10;;;;;;;;;;;;;;;;;;5052931;28;19915;-75
2021/01/04 05:19:36;;;;;;;;;;;;;;;;;;5072967;28;19999;-75
2021/01/04 05:22:02;;;;;;;;;;;;;;;;;;5054730;28;19908;-75
2021/01/04 05:24:28;;;;;;;;;;;;;;;;;;5055079;28;19908;-75
2021/01/04 05:26:54;;;;;;;;;;;;;;;;;;5054752;28;19917;-75
2021/01/04 05:29:19;;;;;;;;;;;;;;;;;;5054692;28;19962;-75
2021/01/04 05:31:45;;;;;;;;;;;;;;;;;;5054341;28;19966;-75
2021/01/04 05:34:11;;;;;;;;;;;;;;;;;;5054627;28;20292;-75
2021/01/04 05:36:37;;;;;;;;;;;;;;;;;;5054904;28;20409;-75
2021/01/04 05:39:03;;;;;;;;;;;;;;;;;;5053848;28;19951;-76
2021/01/04 05:41:29;;;;;;;;;;;;;;;;;;5054382;28;19951;-75
2021/01/04 05:43:55;;;;;;;;;;;;;;;;;;5050965;28;19934;-75
2021/01/04 05:46:21;;;;;;;;;;;;;;;;;;5046017;28;19912;-75
2021/01/04 05:48:47;;;;;;;;;;;;;;;;;;5054381;28;20367;-75
2021/01/04 05:51:13;;;;;;;;;;;;;;;;;;5054400;28;20358;-75
2021/01/04 05:53:39;;;;;;;;;;;;;;;;;;5054333;28;19912;-76
2021/01/04 05:56:05;;;;;;;;;;;;;;;;;;5054903;28;20010;-75
2021/01/04 05:58:31;;;;;;;;;;;;;;;;;;5070211;28;19956;-75
2021/01/04 06:00:57;;;;;;;;;;;;;;;;;;5055330;28;20011;-74
2021/01/04 06:03:23;;;;;;;;;;;;;;;;;;5054952;28;20375;-74
2021/01/04 06:05:50;;;;;;;;;;;;;;;;;;5073887;28;20267;-74
2021/01/04 06:08:16;;;;;;;;;;;;;;;;;;5073158;28;19908;-74
2021/01/04 06:10:42;;;;;;;;;;;;;;;;;;5072749;28;20270;-74
2021/01/04 06:13:08;;;;;;;;;;;;;;;;;;5050998;28;19908;-74
2021/01/04 06:15:34;;;;;;;;;;;;;;;;;;5045961;28;19915;-75
2021/01/04 06:18:00;;;;;;;;;;;;;;;;;;5052461;28;19916;-74
2021/01/04 06:20:26;;;;;;;;;;;;;;;;;;5044338;28;19916;-74
2021/01/04 06:22:52;;;;;;;;;;;;;;;;;;5035234;28;19981;-75
2021/01/04 06:25:18;;;;;;;;;;;;;;;;;;5039700;28;19909;-75
2021/01/04 06:27:44;;;;;;;;;;;;;;;;;;5051828;28;19909;-75
2021/01/04 06:30:10;;;;;;;;;;;;;;;;;;5034862;28;19964;-74
2021/01/04 06:32:36;;;;;;;;;;;;;;;;;;5053033;28;19909;-74
2021/01/04 06:35:01;;;;;;;;;;;;;;;;;;5035796;28;20392;-74
2021/01/04 06:37:27;;;;;;;;;;;;;;;;;;5047875;28;19999;-74
2021/01/04 06:39:53;;;;;;;;;;;;;;;;;;5051110;28;19964;-74
2021/01/04 06:42:19;;;;;;;;;;;;;;;;;;5032137;28;20280;-74
2021/01/04 06:44:45;;;;;;;;;;;;;;;;;;5037230;28;20452;-74
2021/01/04 06:47:11;;;;;;;;;;;;;;;;;;5051758;28;19909;-75
2021/01/04 06:49:37;;;;;;;;;;;;;;;;;;5033644;28;19913;-75
2021/01/04 06:52:03;;;;;;;;;;;;;;;;;;5033352;28;20357;-74
2021/01/04 06:54:29;;;;;;;;;;;;;;;;;;5035224;28;20026;-75
2021/01/04 06:56:55;;;;;;;;;;;;;;;;;;5039842;28;20326;-75
2021/01/04 06:59:21;;;;;;;;;;;;;;;;;;5033400;28;20257;-75
2021/01/04 07:01:47;;;;;;;;;;;;;;;;;;5051281;28;20369;-74
2021/01/04 07:04:13;;;;;;;;;;;;;;;;;;5033512;28;20337;-73
2021/01/04 07:06:38;;;;;;;;;;;;;;;;;;5054156;28;20345;-74
2021/01/04 07:09:04;;;;;;;;;;;;;;;;;;5035690;28;20409;-73
2021/01/04 07:11:30;;;;;;;;;;;;;;;;;;5033093;28;19909;-74
2021/01/04 07:13:57;;;;;;;;;;;;;;;;;;5029774;28;19995;-74
2021/01/04 07:16:25;;;;;;;;;;;;;;;;;;5030148;28;19928;-74
2021/01/04 07:18:52;;;;;;;;;;;;;;;;;;5029718;28;20279;-74
2021/01/04 07:21:18;;;;;;;;;;;;;;;;;;5029927;28;19909;-74
2021/01/04 07:23:44;;;;;;;;;;;;;;;;;;5030693;28;19966;-74
2021/01/04 07:26:10;;;;;;;;;;;;;;;;;;5036470;28;19913;-74
2021/01/04 07:28:36;;;;;;;;;;;;;;;;;;5023459;28;20401;-74
2021/01/04 07:31:02;;;;;;;;;;;;;;;;;;5040685;28;19965;-74
2021/01/04 07:33:27;;;;;;;;;;;;;;;;;;5026009;28;19964;-74
2021/01/04 07:35:53;;;;;;;;;;;;;;;;;;5017436;28;19963;-74
2021/01/04 07:38:19;;;;;;;;;;;;;;;;;;5047543;28;20294;-74
2021/01/04 07:40:45;;;;;;;;;;;;;;;;;;5056988;28;20321;-74
2021/01/04 07:43:11;;;;;;;;;;;;;;;;;;5056748;28;19915;-74
2021/01/04 07:45:37;;;;;;;;;;;;;;;;;;5056847;28;19974;-74
2021/01/04 07:48:03;;;;;;;;;;;;;;;;;;5056418;28;19934;-74
2021/01/04 07:50:29;;;;;;;;;;;;;;;;;;5056744;28;19916;-74
2021/01/04 07:52:55;;;;;;;;;;;;;;;;;;5056427;28;20346;-74
2021/01/04 07:55:21;;;;;;;;;;;;;;;;;;5056535;28;20046;-74
2021/01/04 07:57:47;;;;;;;;;;;;;;;;;;5056527;28;20386;-74
2021/01/04 08:00:13;;;;;;;;;;;;;;;;;;5074557;28;20334;-74
2021/01/04 08:02:39;;;;;;;;;;;;;;;;;;5056443;28;19932;-74
2021/01/04 08:05:05;;;;;;;;;;;;;;;;;;5056570;28;20274;-74
2021/01/04 08:07:31;;;;;;;;;;;;;;;;;;5039659;28;19961;-75
2021/01/04 08:09:57;;;;;;;;;;;;;;;;;;5048446;28;20249;-74
2021/01/04 08:12:23;;;;;;;;;;;;;;;;;;5048012;28;19944;-74
2021/01/04 08:14:48;;;;;;;;;;;;;;;;;;5036180;28;19956;-74
2021/01/04 08:17:14;;;;;;;;;;;;;;;;;;5033849;28;20381;-74
2021/01/04 08:19:40;;;;;;;;;;;;;;;;;;5026046;28;20035;-74
2021/01/04 08:22:06;;;;;;;;;;;;;;;;;;5023473;28;19909;-74
2021/01/04 08:24:32;;;;;;;;;;;;;;;;;;5031431;28;19915;-74
2021/01/04 08:26:58;;;;;;;;;;;;;;;;;;5027800;28;19908;-74
2021/01/04 08:29:24;;;;;;;;;;;;;;;;;;5021498;28;19957;-74
2021/01/04 08:31:50;;;;;;;;;;;;;;;;;;5025265;28;19959;-74
2021/01/04 08:34:19;;;;;;;;;;;;;;;;;;5026483;28;19957;-74
2021/01/04 08:36:45;;;;;;;;;;;;;;;;;;5026591;28;19924;-74
2021/01/04 08:39:11;;;;;;;;;;;;;;;;;;5029320;28;20000;-75
2021/01/04 08:41:36;;;;;;;;;;;;;;;;;;5042768;28;19959;-74
2021/01/04 08:44:02;;;;;;;;;;;;;;;;;;5043513;28;20382;-75
2021/01/04 08:46:28;;;;;;;;;;;;;;;;;;5031287;28;20334;-74
2021/01/04 08:48:54;;;;;;;;;;;;;;;;;;5032810;28;19913;-74
2021/01/04 08:51:20;;;;;;;;;;;;;;;;;;5021993;28;19935;-75
2021/01/04 08:53:46;;;;;;;;;;;;;;;;;;5021407;28;19967;-75
2021/01/04 08:56:12;;;;;;;;;;;;;;;;;;5028116;28;19978;-74
2021/01/04 08:58:38;;;;;;;;;;;;;;;;;;5022862;28;20393;-74
2021/01/04 09:01:04;;;;;;;;;;;;;;;;;;5035166;28;20414;-74
2021/01/04 09:03:30;;;;;;;;;;;;;;;;;;5015660;28;20348;-74
2021/01/04 09:05:56;;;;;;;;;;;;;;;;;;5027876;28;19998;-75
2021/01/04 09:08:22;;;;;;;;;;;;;;;;;;5029877;28;19908;-75
2021/01/04 09:10:48;;;;;;;;;;;;;;;;;;5027087;28;20439;-74
2021/01/04 09:13:13;;;;;;;;;;;;;;;;;;5032369;28;20388;-74
2021/01/04 09:15:40;;;;;;;;;;;;;;;;;;5035458;28;19916;-75
2021/01/04 09:18:06;;;;;;;;;;;;;;;;;;5031773;28;19913;-74
2021/01/04 09:20:32;;;;;;;;;;;;;;;;;;5032712;28;19946;-74
2021/01/04 09:22:58;;;;;;;;;;;;;;;;;;5035460;28;19912;-75
2021/01/04 09:25:24;;;;;;;;;;;;;;;;;;5035217;28;19913;-73
2021/01/04 09:27:50;;;;;;;;;;;;;;;;;;5035011;28;19944;-74
2021/01/04 09:30:15;;;;;;;;;;;;;;;;;;5035265;28;20278;-73
2021/01/04 09:32:42;;;;;;;;;;;;;;;;;;5034895;28;20322;-74
2021/01/04 09:35:08;;;;;;;;;;;;;;;;;;5035080;28;19912;-75
2021/01/04 09:37:34;;;;;;;;;;;;;;;;;;5064987;28;20023;-74
2021/01/04 09:40:00;;;;;;;;;;;;;;;;;;5038151;28;19916;-74
2021/01/04 09:42:26;;;;;;;;;;;;;;;;;;5038156;28;19948;-74
2021/01/04 09:44:52;;;;;;;;;;;;;;;;;;5037158;28;19932;-74
2021/01/04 09:47:18;;;;;;;;;;;;;;;;;;5034380;28;19966;-73
2021/01/04 09:49:44;;;;;;;;;;;;;;;;;;5034385;28;19912;-74
2021/01/04 09:52:10;;;;;;;;;;;;;;;;;;5034852;28;19908;-73
2021/01/04 09:54:36;;;;;;;;;;;;;;;;;;5034082;28;20302;-74
2021/01/04 09:57:03;;;;;;;;;;;;;;;;;;5033636;28;20015;-74
2021/01/04 09:59:29;;;;;;;;;;;;;;;;;;5032439;28;19922;-74
2021/01/04 10:01:55;;;;;;;;;;;;;;;;;;5034041;28;19919;-73
2021/01/04 10:04:21;;;;;;;;;;;;;;;;;;5034384;28;19908;-74
2021/01/04 10:06:47;;;;;;;;;;;;;;;;;;5038029;28;20323;-73
2021/01/04 10:09:13;;;;;;;;;;;;;;;;;;5033969;28;19965;-73
2021/01/04 10:11:39;;;;;;;;;;;;;;;;;;5049296;28;19967;-74
2021/01/04 10:14:05;;;;;;;;;;;;;;;;;;5025464;28;19924;-73
2021/01/04 10:16:31;;;;;;;;;;;;;;;;;;5049021;28;19909;-73
2021/01/04 10:18:57;;;;;;;;;;;;;;;;;;5032687;28;19909;-74
2021/01/04 10:21:23;;;;;;;;;;;;;;;;;;5029226;28;19956;-73
2021/01/04 10:23:49;;;;;;;;;;;;;;;;;;5023855;28;19940;-73
2021/01/04 10:26:15;;;;;;;;;;;;;;;;;;5033613;28;19953;-73
2021/01/04 10:28:41;;;;;;;;;;;;;;;;;;5030370;28;20547;-74
2021/01/04 10:31:07;;;;;;;;;;;;;;;;;;5033716;28;20353;-74
2021/01/04 10:33:34;;;;;;;;;;;;;;;;;;5032172;28;20382;-74
2021/01/04 10:36:00;;;;;;;;;;;;;;;;;;5038319;28;19912;-75
2021/01/04 10:38:26;;;;;;;;;;;;;;;;;;5029993;28;19950;-74
2021/01/04 10:40:52;;;;;;;;;;;;;;;;;;5029337;28;19921;-74
2021/01/04 10:43:17;;;;;;;;;;;;;;;;;;5028572;28;19993;-74
2021/01/04 10:45:44;;;;;;;;;;;;;;;;;;5032815;28;19912;-74
2021/01/04 10:48:10;;;;;;;;;;;;;;;;;;5033741;28;19909;-73
2021/01/04 10:50:41;;;;;;;;;;;;;;;;;;5051264;28;19924;-73
2021/01/04 10:53:07;;;;;;;;;;;;;;;;;;5033266;28;19912;-73
2021/01/04 10:55:33;;;;;;;;;;;;;;;;;;5032985;28;19960;-74
2021/01/04 10:57:59;;;;;;;;;;;;;;;;;;5032561;28;19913;-73
2021/01/04 11:00:25;;;;;;;;;;;;;;;;;;5032902;28;19967;-74
2021/01/04 11:02:51;;;;;;;;;;;;;;;;;;5033427;28;19908;-74
2021/01/04 11:05:17;;;;;;;;;;;;;;;;;;5033417;28;19909;-73
2021/01/04 11:07:46;;;;;;;;;;;;;;;;;;5040601;28;19958;-74
2021/01/04 11:10:12;;;;;;;;;;;;;;;;;;5052748;28;20371;-74
2021/01/04 11:12:38;;;;;;;;;;;;;;;;;;5040319;28;20007;-74
2021/01/04 11:15:04;;;;;;;;;;;;;;;;;;5029176;28;19964;-74
2021/01/04 11:17:30;;;;;;;;;;;;;;;;;;5029910;28;19948;-75
2021/01/04 11:19:58;;;;;;;;;;;;;;;;;;5050913;28;19995;-74
2021/01/04 11:22:24;;;;;;;;;;;;;;;;;;5033125;28;20294;-74
2021/01/04 11:24:51;;;;;;;;;;;;;;;;;;5029774;28;19915;-74
2021/01/04 11:27:17;;;;;;;;;;;;;;;;;;5036456;28;19909;-76
2021/01/04 11:29:43;;;;;;;;;;;;;;;;;;5028899;28;20137;-73
2021/01/04 11:32:09;;;;;;;;;;;;;;;;;;5032490;28;19955;-75
2021/01/04 11:34:34;;;;;;;;;;;;;;;;;;5033023;28;20383;-75
2021/01/04 11:37:00;;;;;;;;;;;;;;;;;;5032983;28;20394;-74
2021/01/04 11:39:27;;;;;;;;;;;;;;;;;;5053078;28;19944;-74
2021/01/04 11:41:53;;;;;;;;;;;;;;;;;;5036820;28;19913;-74
2021/01/04 11:44:19;;;;;;;;;;;;;;;;;;5051063;28;19909;-75
2021/01/04 11:46:45;;;;;;;;;;;;;;;;;;5051298;28;20283;-74
2021/01/04 11:49:10;;;;;;;;;;;;;;;;;;5032885;28;19958;-73
2021/01/04 11:51:36;;;;;;;;;;;;;;;;;;5032043;28;20371;-74
2021/01/04 11:54:02;;;;;;;;;;;;;;;;;;5031087;28;19916;-74
2021/01/04 11:56:28;;;;;;;;;;;;;;;;;;5032446;28;19921;-74
2021/01/04 11:58:54;;;;;;;;;;;;;;;;;;5033045;28;19913;-74
2021/01/04 12:01:20;;;;;;;;;;;;;;;;;;5031979;28;19947;-74
2021/01/04 12:03:46;;;;;;;;;;;;;;;;;;5031294;28;20394;-74
2021/01/04 12:06:12;;;;;;;;;;;;;;;;;;5032920;28;19944;-74
2021/01/04 12:08:38;;;;;;;;;;;;;;;;;;5032178;28;20371;-73
2021/01/04 12:11:04;;;;;;;;;;;;;;;;;;5034027;28;20386;-74
2021/01/04 12:13:30;;;;;;;;;;;;;;;;;;5036786;28;19960;-74
2021/01/04 12:15:56;;;;;;;;;;;;;;;;;;5049903;28;20059;-74
2021/01/04 12:18:22;;;;;;;;;;;;;;;;;;5060140;28;20194;-74
2021/01/04 12:20:48;;;;;;;;;;;;;;;;;;5036124;28;19909;-74
2021/01/04 12:23:14;;;;;;;;;;;;;;;;;;5054399;28;19909;-74
2021/01/04 12:25:40;;;;;;;;;;;;;;;;;;5035787;28;20016;-74
2021/01/04 12:28:06;;;;;;;;;;;;;;;;;;5035047;28;20002;-74
2021/01/04 12:30:32;;;;;;;;;;;;;;;;;;5047463;28;19952;-74
2021/01/04 12:32:59;;;;;;;;;;;;;;;;;;5036158;28;20192;-74
2021/01/04 12:35:25;;;;;;;;;;;;;;;;;;5054585;28;19913;-74
2021/01/04 12:37:51;;;;;;;;;;;;;;;;;;5053626;28;20339;-74
2021/01/04 12:40:19;;;;;;;;;;;;;;;;;;5029704;28;19956;-74
2021/01/04 12:42:45;;;;;;;;;;;;;;;;;;5035150;28;20271;-74
2021/01/04 12:45:11;;;;;;;;;;;;;;;;;;5052440;28;20302;-74
2021/01/04 12:47:37;;;;;;;;;;;;;;;;;;5053615;28;19908;-74
2021/01/04 12:50:03;;;;;;;;;;;;;;;;;;5040856;28;19909;-74
2021/01/04 12:52:28;;;;;;;;;;;;;;;;;;5032364;28;19919;-73
2021/01/04 12:54:54;;;;;;;;;;;;;;;;;;5037758;28;20043;-75
2021/01/04 12:57:24;;;;;;;;;;;;;;;;;;5038175;28;19912;-74
2021/01/04 12:59:50;;;;;;;;;;;;;;;;;;5034539;28;19932;-74
2021/01/04 13:02:16;;;;;;;;;;;;;;;;;;5034814;28;19952;-74
2021/01/04 13:04:42;;;;;;;;;;;;;;;;;;5042600;28;19921;-74
2021/01/04 13:07:08;;;;;;;;;;;;;;;;;;5035834;28;19992;-74
2021/01/04 13:09:34;;;;;;;;;;;;;;;;;;5041086;28;20398;-74
2021/01/04 13:12:00;;;;;;;;;;;;;;;;;;5040354;28;20333;-74
2021/01/04 13:14:26;;;;;;;;;;;;;;;;;;5039293;28;20387;-74
2021/01/04 13:16:52;;;;;;;;;;;;;;;;;;5033684;28;19952;-75
2021/01/04 13:19:18;;;;;;;;;;;;;;;;;;5034424;28;19909;-74
2021/01/04 13:21:44;;;;;;;;;;;;;;;;;;5032687;28;20033;-74
2021/01/04 13:24:10;;;;;;;;;;;;;;;;;;5031899;28;19967;-74
2021/01/04 13:26:36;;;;;;;;;;;;;;;;;;5032054;28;20463;-74
2021/01/04 13:29:02;;;;;;;;;;;;;;;;;;5031723;28;19967;-74
2021/01/04 13:31:28;;;;;;;;;;;;;;;;;;5049909;28;19944;-73
2021/01/04 13:33:54;;;;;;;;;;;;;;;;;;5035539;28;19944;-74
2021/01/04 13:36:20;;;;;;;;;;;;;;;;;;5035703;28;20446;-74
2021/01/04 13:38:46;;;;;;;;;;;;;;;;;;5035295;28;19944;-74
2021/01/04 13:41:12;;;;;;;;;;;;;;;;;;5044505;28;19916;-73
2021/01/04 13:43:37;;;;;;;;;;;;;;;;;;5036296;28;20194;-73
2021/01/04 13:46:03;;;;;;;;;;;;;;;;;;5034587;28;19919;-73
2021/01/04 13:48:29;;;;;;;;;;;;;;;;;;5034596;28;20003;-73
2021/01/04 13:50:55;;;;;;;;;;;;;;;;;;5034602;28;19909;-74
2021/01/04 13:53:23;;;;;;;;;;;;;;;;;;5034107;28;19912;-75
2021/01/04 13:55:49;;;;;;;;;;;;;;;;;;5034167;28;19967;-75
2021/01/04 13:58:15;;;;;;;;;;;;;;;;;;5033892;28;19913;-75
2021/01/04 14:00:40;;;;;;;;;;;;;;;;;;5033950;28;19940;-75
2021/01/04 14:03:06;;;;;;;;;;;;;;;;;;5033327;28;20506;-75
2021/01/04 14:05:32;;;;;;;;;;;;;;;;;;5033938;28;19917;-74
2021/01/04 14:07:58;;;;;;;;;;;;;;;;;;5056982;28;19951;-74
2021/01/04 14:10:24;;;;;;;;;;;;;;;;;;5042041;28;19920;-74
2021/01/04 14:12:50;;;;;;;;;;;;;;;;;;5031307;28;20387;-74
2021/01/04 14:15:16;;;;;;;;;;;;;;;;;;5034007;28;20295;-74
2021/01/04 14:17:42;;;;;;;;;;;;;;;;;;5033521;28;20038;-74
2021/01/04 14:20:08;;;;;;;;;;;;;;;;;;5033983;28;20027;-74
2021/01/04 14:22:34;;;;;;;;;;;;;;;;;;5033658;28;19952;-74
2021/01/04 14:25:00;;;;;;;;;;;;;;;;;;5051943;28;19952;-74
2021/01/04 14:27:26;;;;;;;;;;;;;;;;;;5051294;28;19955;-74
2021/01/04 14:29:52;;;;;;;;;;;;;;;;;;5033398;28;19976;-74
2021/01/04 14:32:20;;;;;;;;;;;;;;;;;;5033526;28;20450;-74
2021/01/04 14:34:46;;;;;;;;;;;;;;;;;;5033391;28;19913;-74
2021/01/04 14:37:12;;;;;;;;;;;;;;;;;;5033283;28;20397;-74
2021/01/04 14:39:38;;;;;;;;;;;;;;;;;;5031342;28;19991;-74
2021/01/04 14:42:04;;;;;;;;;;;;;;;;;;5036487;28;19963;-75
2021/01/04 14:44:30;;;;;;;;;;;;;;;;;;5036662;28;19963;-74
2021/01/04 14:46:56;;;;;;;;;;;;;;;;;;5051261;28;19908;-75
2021/01/04 14:49:22;;;;;;;;;;;;;;;;;;5030981;28;19912;-75
2021/01/04 14:51:48;;;;;;;;;;;;;;;;;;5046955;28;20050;-76
2021/01/04 14:54:14;;;;;;;;;;;;;;;;;;5033317;28;19916;-76
2021/01/04 14:56:40;;;;;;;;;;;;;;;;;;5033193;28;20386;-76
2021/01/04 14:59:06;;;;;;;;;;;;;;;;;;5033054;28;19967;-75
2021/01/04 15:01:32;;;;;;;;;;;;;;;;;;5033314;28;20022;-75
2021/01/04 15:03:58;;;;;;;;;;;;;;;;;;5033304;28;19909;-75
2021/01/04 15:06:24;;;;;;;;;;;;;;;;;;5033178;28;19967;-73
2021/01/04 15:08:50;;;;;;;;;;;;;;;;;;5049579;28;20291;-73
2021/01/04 15:11:16;;;;;;;;;;;;;;;;;;5038112;28;19948;-75
2021/01/04 15:13:41;;;;;;;;;;;;;;;;;;5032550;28;19952;-74
2021/01/04 15:16:07;;;;;;;;;;;;;;;;;;5031332;28;20280;-74
2021/01/04 15:18:33;;;;;;;;;;;;;;;;;;5028802;28;19917;-75
2021/01/04 15:20:59;;;;;;;;;;;;;;;;;;5025299;28;19944;-75
2021/01/04 15:23:25;;;;;;;;;;;;;;;;;;5030673;28;19960;-75
2021/01/04 15:25:51;;;;;;;;;;;;;;;;;;5026312;28;19940;-75
2021/01/04 15:28:17;;;;;;;;;;;;;;;;;;5031451;28;19948;-75
2021/01/04 15:30:43;;;;;;;;;;;;;;;;;;5032776;28;19913;-74
2021/01/04 15:33:09;;;;;;;;;;;;;;;;;;5032811;28;19974;-76
2021/01/04 15:35:35;;;;;;;;;;;;;;;;;;5033045;28;20359;-75
2021/01/04 15:38:01;;;;;;;;;;;;;;;;;;5032780;28;19952;-75
2021/01/04 15:40:27;;;;;;;;;;;;;;;;;;5054785;28;19916;-75
2021/01/04 15:42:53;;;;;;;;;;;;;;;;;;5035877;28;19944;-75
2021/01/04 15:45:19;;;;;;;;;;;;;;;;;;5054052;28;19948;-75
2021/01/04 15:47:45;;;;;;;;;;;;;;;;;;5032608;28;20004;-74
2021/01/04 15:50:11;;;;;;;;;;;;;;;;;;5032835;28;19955;-75
2021/01/04 15:52:37;;;;;;;;;;;;;;;;;;5029438;28;19996;-75
2021/01/04 15:55:03;;;;;;;;;;;;;;;;;;5036371;28;19913;-75
2021/01/04 15:57:28;;;;;;;;;;;;;;;;;;5036261;28;20355;-75
2021/01/04 15:59:54;;;;;;;;;;;;;;;;;;5036460;28;20386;-74
2021/01/04 16:02:20;;;;;;;;;;;;;;;;;;5036370;28;20001;-75
2021/01/04 16:04:46;;;;;;;;;;;;;;;;;;5036303;28;19978;-74
2021/01/04 16:07:12;;;;;;;;;;;;;;;;;;5036259;28;19908;-75
2021/01/04 16:09:38;;;;;;;;;;;;;;;;;;5036086;28;20062;-75
2021/01/04 16:12:04;;;;;;;;;;;;;;;;;;5036984;28;19917;-75
2021/01/04 16:14:30;;;;;;;;;;;;;;;;;;5046773;28;19968;-74
2021/01/04 16:16:56;;;;;;;;;;;;;;;;;;5054508;28;19912;-75
2021/01/04 16:19:22;;;;;;;;;;;;;;;;;;5035725;28;19955;-75
2021/01/04 16:21:48;;;;;;;;;;;;;;;;;;5041191;28;19909;-75
2021/01/04 16:24:13;;;;;;;;;;;;;;;;;;5036228;28;19913;-72
2021/01/04 16:26:39;;;;;;;;;;;;;;;;;;5054166;28;19943;-73
2021/01/04 16:29:05;;;;;;;;;;;;;;;;;;5035354;28;19909;-73
2021/01/04 16:31:31;;;;;;;;;;;;;;;;;;5053417;28;19999;-73
2021/01/04 16:33:57;;;;;;;;;;;;;;;;;;5035720;28;19998;-73
2021/01/04 16:36:23;;;;;;;;;;;;;;;;;;5035756;28;19919;-73